sensor_id;sensor_type;location;lat;lon;timestamp;pressure;altitude;pressure_sealevel;temperature;humidity
57600;BME280;43426;43.594;24.334;2023-03-14T00:01:13;101401.03;;;-0.59;84.41
57600;BME280;43426;43.594;24.334;2023-03-14T00:03:38;101434.78;;;-0.62;84.69
57600;BME280;43426;43.594;24.334;2023-03-14T00:06:04;101435.47;;;-0.75;82.63
57600;BME280;43426;43.594;24.334;2023-03-14T00:08:30;101444.28;;;-1.27;84.57
57600;BME280;43426;43.594;24.334;2023-03-14T00:10:56;101440.03;;;-1.48;86.79
57600;BME280;43426;43.594;24.334;2023-03-14T00:13:23;101421.03;;;-1.57;87.76
57600;BME280;43426;43.594;24.334;2023-03-14T00:15:49;101439.69;;;-1.41;88.90
57600;BME280;43426;43.594;24.334;2023-03-14T00:18:14;101421.88;;;-1.37;89.74
57600;BME280;43426;43.594;24.334;2023-03-14T00:20:40;101448.97;;;-1.14;90.20
57600;BME280;43426;43.594;24.334;2023-03-14T00:23:06;101434.00;;;-1.15;90.72
57600;BME280;43426;43.594;24.334;2023-03-14T00:25:31;101427.94;;;-1.17;91.25
57600;BME280;43426;43.594;24.334;2023-03-14T00:27:57;101451.91;;;-1.03;90.80
57600;BME280;43426;43.594;24.334;2023-03-14T00:30:22;101436.56;;;-0.96;91.19
57600;BME280;43426;43.594;24.334;2023-03-14T00:32:47;101438.19;;;-0.94;92.84
57600;BME280;43426;43.594;24.334;2023-03-14T00:35:13;101415.94;;;-1.07;93.99
57600;BME280;43426;43.594;24.334;2023-03-14T00:37:38;101423.31;;;-0.96;95.19
57600;BME280;43426;43.594;24.334;2023-03-14T00:40:04;101396.09;;;-0.82;94.49
57600;BME280;43426;43.594;24.334;2023-03-14T00:42:32;101381.84;;;-0.80;94.57
57600;BME280;43426;43.594;24.334;2023-03-14T00:44:57;101398.38;;;-0.59;94.47
57600;BME280;43426;43.594;24.334;2023-03-14T00:47:22;101379.38;;;-0.67;94.03
57600;BME280;43426;43.594;24.334;2023-03-14T00:49:48;101363.00;;;-0.58;93.49
57600;BME280;43426;43.594;24.334;2023-03-14T00:52:13;101385.84;;;-0.39;92.20
57600;BME280;43426;43.594;24.334;2023-03-14T00:54:39;101385.63;;;-0.68;87.02
57600;BME280;43426;43.594;24.334;2023-03-14T00:57:04;101396.91;;;-0.98;88.67
57600;BME280;43426;43.594;24.334;2023-03-14T00:59:30;101368.78;;;-1.00;89.84
57600;BME280;43426;43.594;24.334;2023-03-14T01:01:55;101364.69;;;-1.06;89.81
57600;BME280;43426;43.594;24.334;2023-03-14T01:04:20;101384.59;;;-0.99;90.30
57600;BME280;43426;43.594;24.334;2023-03-14T01:06:46;101381.19;;;-1.18;90.73
57600;BME280;43426;43.594;24.334;2023-03-14T01:09:11;101382.56;;;-0.94;90.91
57600;BME280;43426;43.594;24.334;2023-03-14T01:11:37;101384.28;;;-0.93;91.48
57600;BME280;43426;43.594;24.334;2023-03-14T01:14:02;101379.13;;;-0.96;91.57
57600;BME280;43426;43.594;24.334;2023-03-14T01:16:31;101385.31;;;-0.95;92.22
57600;BME280;43426;43.594;24.334;2023-03-14T01:18:57;101380.97;;;-0.80;92.04
57600;BME280;43426;43.594;24.334;2023-03-14T01:23:50;101354.53;;;-0.98;91.04
57600;BME280;43426;43.594;24.334;2023-03-14T01:26:18;101351.53;;;-0.92;90.97
57600;BME280;43426;43.594;24.334;2023-03-14T01:28:45;101373.69;;;-0.93;90.84
57600;BME280;43426;43.594;24.334;2023-03-14T01:31:11;101371.09;;;-0.94;90.65
57600;BME280;43426;43.594;24.334;2023-03-14T01:33:37;101346.31;;;-1.09;89.98
57600;BME280;43426;43.594;24.334;2023-03-14T01:36:03;101366.41;;;-1.05;88.14
57600;BME280;43426;43.594;24.334;2023-03-14T01:38:29;101357.69;;;-1.25;87.57
57600;BME280;43426;43.594;24.334;2023-03-14T01:40:55;101362.66;;;-1.36;88.45
57600;BME280;43426;43.594;24.334;2023-03-14T01:43:20;101349.31;;;-1.50;89.83
57600;BME280;43426;43.594;24.334;2023-03-14T01:49:22;101358.97;;;-1.49;92.34
57600;BME280;43426;43.594;24.334;2023-03-14T01:52:02;101342.03;;;-1.47;93.23
57600;BME280;43426;43.594;24.334;2023-03-14T01:54:33;101346.50;;;-1.47;94.12
57600;BME280;43426;43.594;24.334;2023-03-14T02:00:02;101313.97;;;-1.49;94.53
57600;BME280;43426;43.594;24.334;2023-03-14T02:02:29;101328.50;;;-1.41;94.25
57600;BME280;43426;43.594;24.334;2023-03-14T02:04:56;101325.91;;;-1.25;93.21
57600;BME280;43426;43.594;24.334;2023-03-14T02:07:29;101315.03;;;-1.36;92.94
57600;BME280;43426;43.594;24.334;2023-03-14T02:09:58;101312.88;;;-1.45;92.81
57600;BME280;43426;43.594;24.334;2023-03-14T02:12:25;101312.44;;;-1.20;92.93
57600;BME280;43426;43.594;24.334;2023-03-14T02:14:51;101306.53;;;-1.25;92.63
57600;BME280;43426;43.594;24.334;2023-03-14T02:17:18;101294.56;;;-1.32;92.05
57600;BME280;43426;43.594;24.334;2023-03-14T02:22:47;101332.25;;;-1.27;92.41
57600;BME280;43426;43.594;24.334;2023-03-14T02:27:50;101318.66;;;-1.21;92.42
57600;BME280;43426;43.594;24.334;2023-03-14T02:30:21;101314.38;;;-1.24;92.30
57600;BME280;43426;43.594;24.334;2023-03-14T02:32:52;101310.97;;;-1.26;92.42
57600;BME280;43426;43.594;24.334;2023-03-14T02:35:22;101328.69;;;-1.10;92.93
57600;BME280;43426;43.594;24.334;2023-03-14T02:37:55;101334.38;;;-0.84;91.53
57600;BME280;43426;43.594;24.334;2023-03-14T02:40:21;101339.53;;;-0.81;91.32
57600;BME280;43426;43.594;24.334;2023-03-14T02:42:47;101321.97;;;-1.00;91.21
57600;BME280;43426;43.594;24.334;2023-03-14T02:47:44;101326.88;;;-0.92;90.29
57600;BME280;43426;43.594;24.334;2023-03-14T02:50:24;101323.84;;;-1.02;90.73
57600;BME280;43426;43.594;24.334;2023-03-14T02:52:51;101327.97;;;-0.80;90.02
57600;BME280;43426;43.594;24.334;2023-03-14T02:55:23;101299.53;;;-0.93;89.40
57600;BME280;43426;43.594;24.334;2023-03-14T02:57:50;101266.50;;;-1.03;89.38
57600;BME280;43426;43.594;24.334;2023-03-14T03:00:16;101309.59;;;-0.83;87.81
57600;BME280;43426;43.594;24.334;2023-03-14T03:02:42;101296.75;;;-1.07;88.71
57600;BME280;43426;43.594;24.334;2023-03-14T03:05:07;101322.28;;;-0.89;89.39
57600;BME280;43426;43.594;24.334;2023-03-14T03:07:33;101304.22;;;-0.98;89.48
57600;BME280;43426;43.594;24.334;2023-03-14T03:09:58;101315.44;;;-0.77;89.54
57600;BME280;43426;43.594;24.334;2023-03-14T03:12:23;101281.47;;;-1.02;89.25
57600;BME280;43426;43.594;24.334;2023-03-14T03:14:49;101305.31;;;-0.86;89.24
57600;BME280;43426;43.594;24.334;2023-03-14T03:17:14;101301.13;;;-0.90;89.59
57600;BME280;43426;43.594;24.334;2023-03-14T03:19:40;101292.16;;;-1.04;89.94
57600;BME280;43426;43.594;24.334;2023-03-14T03:22:05;101302.53;;;-0.83;90.27
57600;BME280;43426;43.594;24.334;2023-03-14T03:24:31;101304.84;;;-0.77;89.90
57600;BME280;43426;43.594;24.334;2023-03-14T03:26:56;101301.25;;;-0.76;88.64
57600;BME280;43426;43.594;24.334;2023-03-14T03:29:21;101329.69;;;-0.79;87.94
57600;BME280;43426;43.594;24.334;2023-03-14T03:31:47;101328.81;;;-0.96;89.75
57600;BME280;43426;43.594;24.334;2023-03-14T03:34:13;101294.13;;;-1.25;90.23
57600;BME280;43426;43.594;24.334;2023-03-14T03:36:38;101325.44;;;-1.15;90.32
57600;BME280;43426;43.594;24.334;2023-03-14T03:39:04;101299.75;;;-1.31;90.50
57600;BME280;43426;43.594;24.334;2023-03-14T03:41:30;101320.50;;;-1.06;89.40
57600;BME280;43426;43.594;24.334;2023-03-14T03:43:56;101312.03;;;-1.12;88.97
57600;BME280;43426;43.594;24.334;2023-03-14T03:46:22;101316.72;;;-1.17;89.45
57600;BME280;43426;43.594;24.334;2023-03-14T03:48:48;101322.03;;;-1.17;89.28
57600;BME280;43426;43.594;24.334;2023-03-14T03:51:15;101315.66;;;-1.31;88.96
57600;BME280;43426;43.594;24.334;2023-03-14T03:53:42;101319.06;;;-1.29;87.09
57600;BME280;43426;43.594;24.334;2023-03-14T03:56:08;101301.44;;;-1.63;86.77
57600;BME280;43426;43.594;24.334;2023-03-14T03:58:34;101317.47;;;-1.84;88.50
57600;BME280;43426;43.594;24.334;2023-03-14T04:00:59;101309.28;;;-1.79;90.61
57600;BME280;43426;43.594;24.334;2023-03-14T04:03:25;101317.31;;;-1.63;90.83
57600;BME280;43426;43.594;24.334;2023-03-14T04:06:06;101314.97;;;-1.52;90.80
57600;BME280;43426;43.594;24.334;2023-03-14T04:08:31;101292.63;;;-1.64;90.81
57600;BME280;43426;43.594;24.334;2023-03-14T04:10:58;101310.69;;;-1.55;90.47
57600;BME280;43426;43.594;24.334;2023-03-14T04:13:25;101287.97;;;-1.76;90.88
57600;BME280;43426;43.594;24.334;2023-03-14T04:15:51;101309.13;;;-1.76;91.40
57600;BME280;43426;43.594;24.334;2023-03-14T04:18:16;101303.00;;;-1.77;91.62
57600;BME280;43426;43.594;24.334;2023-03-14T04:20:42;101301.56;;;-1.66;91.44
57600;BME280;43426;43.594;24.334;2023-03-14T04:23:07;101300.09;;;-1.72;91.08
57600;BME280;43426;43.594;24.334;2023-03-14T04:25:33;101302.75;;;-1.72;91.82
57600;BME280;43426;43.594;24.334;2023-03-14T04:27:58;101294.19;;;-1.60;91.30
57600;BME280;43426;43.594;24.334;2023-03-14T04:30:24;101282.50;;;-1.73;91.25
57600;BME280;43426;43.594;24.334;2023-03-14T04:32:49;101261.69;;;-1.79;90.80
57600;BME280;43426;43.594;24.334;2023-03-14T04:35:15;101273.66;;;-1.90;91.11
57600;BME280;43426;43.594;24.334;2023-03-14T04:37:40;101277.38;;;-1.76;91.33
57600;BME280;43426;43.594;24.334;2023-03-14T04:40:09;101245.19;;;-2.02;91.83
57600;BME280;43426;43.594;24.334;2023-03-14T04:42:34;101276.53;;;-1.77;91.69
57600;BME280;43426;43.594;24.334;2023-03-14T04:45:00;101277.31;;;-1.75;91.19
57600;BME280;43426;43.594;24.334;2023-03-14T04:47:26;101256.63;;;-2.01;91.51
57600;BME280;43426;43.594;24.334;2023-03-14T04:49:51;101284.84;;;-1.84;92.06
57600;BME280;43426;43.594;24.334;2023-03-14T04:52:16;101251.09;;;-1.62;90.88
57600;BME280;43426;43.594;24.334;2023-03-14T04:54:42;101274.56;;;-1.56;89.06
57600;BME280;43426;43.594;24.334;2023-03-14T04:57:07;101272.75;;;-1.38;85.67
57600;BME280;43426;43.594;24.334;2023-03-14T04:59:33;101278.94;;;-1.37;84.60
57600;BME280;43426;43.594;24.334;2023-03-14T05:01:58;101262.91;;;-1.69;85.90
57600;BME280;43426;43.594;24.334;2023-03-14T05:04:23;101262.13;;;-1.89;87.21
57600;BME280;43426;43.594;24.334;2023-03-14T05:06:49;101281.59;;;-1.55;87.97
57600;BME280;43426;43.594;24.334;2023-03-14T05:09:14;101285.22;;;-1.40;88.06
57600;BME280;43426;43.594;24.334;2023-03-14T05:11:40;101276.38;;;-1.23;88.31
57600;BME280;43426;43.594;24.334;2023-03-14T05:14:05;101285.41;;;-1.09;88.25
57600;BME280;43426;43.594;24.334;2023-03-14T05:16:31;101269.78;;;-0.98;88.54
57600;BME280;43426;43.594;24.334;2023-03-14T05:18:56;101267.81;;;-0.62;87.93
57600;BME280;43426;43.594;24.334;2023-03-14T05:21:22;101291.47;;;-0.11;86.15
57600;BME280;43426;43.594;24.334;2023-03-14T05:23:47;101295.22;;;0.01;85.07
57600;BME280;43426;43.594;24.334;2023-03-14T05:26:13;101281.91;;;0.16;84.38
57600;BME280;43426;43.594;24.334;2023-03-14T05:28:38;101297.53;;;0.52;83.50
57600;BME280;43426;43.594;24.334;2023-03-14T05:31:07;101281.06;;;0.90;82.07
57600;BME280;43426;43.594;24.334;2023-03-14T05:33:33;101307.38;;;1.50;80.23
57600;BME280;43426;43.594;24.334;2023-03-14T05:35:58;101294.47;;;1.86;80.16
57600;BME280;43426;43.594;24.334;2023-03-14T05:38:24;101293.81;;;2.22;78.87
57600;BME280;43426;43.594;24.334;2023-03-14T05:40:49;101288.31;;;2.51;77.31
57600;BME280;43426;43.594;24.334;2023-03-14T05:43:15;101269.25;;;2.83;75.55
57600;BME280;43426;43.594;24.334;2023-03-14T05:45:41;101274.78;;;3.06;73.64
57600;BME280;43426;43.594;24.334;2023-03-14T05:48:07;101291.31;;;3.48;73.12
57600;BME280;43426;43.594;24.334;2023-03-14T05:50:32;101276.72;;;3.65;71.69
57600;BME280;43426;43.594;24.334;2023-03-14T05:52:58;101295.47;;;4.01;70.59
57600;BME280;43426;43.594;24.334;2023-03-14T05:55:23;101276.44;;;4.05;69.83
57600;BME280;43426;43.594;24.334;2023-03-14T05:57:49;101272.25;;;4.14;68.57
57600;BME280;43426;43.594;24.334;2023-03-14T06:00:14;101288.34;;;4.48;67.86
57600;BME280;43426;43.594;24.334;2023-03-14T06:02:40;101300.19;;;4.80;67.37
57600;BME280;43426;43.594;24.334;2023-03-14T06:05:07;101289.63;;;5.12;65.60
57600;BME280;43426;43.594;24.334;2023-03-14T06:07:32;101275.50;;;5.33;65.95
57600;BME280;43426;43.594;24.334;2023-03-14T06:09:57;101249.53;;;5.23;65.54
57600;BME280;43426;43.594;24.334;2023-03-14T06:12:24;101279.00;;;5.56;64.45
57600;BME280;43426;43.594;24.334;2023-03-14T06:14:49;101271.47;;;5.50;65.04
57600;BME280;43426;43.594;24.334;2023-03-14T06:17:15;101293.75;;;5.50;64.21
57600;BME280;43426;43.594;24.334;2023-03-14T06:19:40;101288.91;;;5.21;65.80
57600;BME280;43426;43.594;24.334;2023-03-14T06:22:05;101296.91;;;5.33;64.65
57600;BME280;43426;43.594;24.334;2023-03-14T06:24:31;101267.50;;;5.10;65.59
57600;BME280;43426;43.594;24.334;2023-03-14T06:26:58;101285.25;;;5.22;67.66
57600;BME280;43426;43.594;24.334;2023-03-14T06:29:23;101291.13;;;5.71;64.80
57600;BME280;43426;43.594;24.334;2023-03-14T06:31:48;101291.44;;;6.01;64.16
57600;BME280;43426;43.594;24.334;2023-03-14T06:34:14;101274.28;;;6.24;62.60
57600;BME280;43426;43.594;24.334;2023-03-14T06:36:39;101245.59;;;6.15;63.27
57600;BME280;43426;43.594;24.334;2023-03-14T06:39:05;101275.16;;;6.46;62.71
57600;BME280;43426;43.594;24.334;2023-03-14T06:41:30;101277.25;;;6.63;61.86
57600;BME280;43426;43.594;24.334;2023-03-14T06:43:56;101276.47;;;6.82;61.37
57600;BME280;43426;43.594;24.334;2023-03-14T06:46:21;101269.09;;;6.75;62.15
57600;BME280;43426;43.594;24.334;2023-03-14T06:48:46;101262.81;;;6.64;62.52
57600;BME280;43426;43.594;24.334;2023-03-14T06:51:12;101272.06;;;7.03;62.07
57600;BME280;43426;43.594;24.334;2023-03-14T06:53:37;101259.13;;;7.18;61.75
57600;BME280;43426;43.594;24.334;2023-03-14T06:56:03;101257.63;;;7.35;60.16
57600;BME280;43426;43.594;24.334;2023-03-14T06:58:29;101227.81;;;7.38;60.43
57600;BME280;43426;43.594;24.334;2023-03-14T07:00:54;101271.13;;;7.93;59.39
57600;BME280;43426;43.594;24.334;2023-03-14T07:03:20;101258.28;;;7.97;58.20
57600;BME280;43426;43.594;24.334;2023-03-14T07:05:45;101273.25;;;8.19;58.25
57600;BME280;43426;43.594;24.334;2023-03-14T07:08:11;101268.84;;;8.38;56.47
57600;BME280;43426;43.594;24.334;2023-03-14T07:10:36;101247.06;;;8.41;56.34
57600;BME280;43426;43.594;24.334;2023-03-14T07:13:02;101250.22;;;8.93;55.77
57600;BME280;43426;43.594;24.334;2023-03-14T07:15:27;101259.59;;;9.17;54.95
57600;BME280;43426;43.594;24.334;2023-03-14T07:17:53;101255.28;;;9.52;54.89
57600;BME280;43426;43.594;24.334;2023-03-14T07:20:18;101236.38;;;9.80;54.30
57600;BME280;43426;43.594;24.334;2023-03-14T07:22:49;101249.94;;;9.88;54.16
57600;BME280;43426;43.594;24.334;2023-03-14T07:25:16;101235.91;;;10.02;53.02
57600;BME280;43426;43.594;24.334;2023-03-14T07:27:45;101244.50;;;10.42;52.87
57600;BME280;43426;43.594;24.334;2023-03-14T07:30:11;101238.72;;;10.63;53.22
57600;BME280;43426;43.594;24.334;2023-03-14T07:32:36;101245.88;;;10.72;52.55
57600;BME280;43426;43.594;24.334;2023-03-14T07:35:02;101218.78;;;10.82;52.01
57600;BME280;43426;43.594;24.334;2023-03-14T07:37:28;101237.25;;;11.03;51.86
57600;BME280;43426;43.594;24.334;2023-03-14T07:39:53;101237.72;;;11.33;50.15
57600;BME280;43426;43.594;24.334;2023-03-14T07:42:19;101221.84;;;11.30;49.88
57600;BME280;43426;43.594;24.334;2023-03-14T07:44:44;101198.91;;;11.43;47.97
57600;BME280;43426;43.594;24.334;2023-03-14T07:47:09;101201.66;;;11.67;50.13
57600;BME280;43426;43.594;24.334;2023-03-14T07:49:35;101212.94;;;11.54;47.91
57600;BME280;43426;43.594;24.334;2023-03-14T07:52:00;101226.16;;;11.82;47.80
57600;BME280;43426;43.594;24.334;2023-03-14T07:54:26;101215.91;;;12.19;46.57
57600;BME280;43426;43.594;24.334;2023-03-14T07:56:51;101189.38;;;12.06;46.13
57600;BME280;43426;43.594;24.334;2023-03-14T07:59:17;101205.94;;;12.19;47.72
57600;BME280;43426;43.594;24.334;2023-03-14T08:01:43;101187.84;;;12.12;45.28
57600;BME280;43426;43.594;24.334;2023-03-14T08:04:08;101165.31;;;11.78;45.32
57600;BME280;43426;43.594;24.334;2023-03-14T08:06:35;101169.22;;;12.17;45.44
57600;BME280;43426;43.594;24.334;2023-03-14T08:09:01;101174.63;;;12.33;44.94
57600;BME280;43426;43.594;24.334;2023-03-14T08:11:26;101184.63;;;12.24;44.12
57600;BME280;43426;43.594;24.334;2023-03-14T08:13:52;101164.53;;;12.11;44.10
57600;BME280;43426;43.594;24.334;2023-03-14T08:16:17;101169.56;;;12.30;45.42
57600;BME280;43426;43.594;24.334;2023-03-14T08:18:44;101181.16;;;12.64;44.08
57600;BME280;43426;43.594;24.334;2023-03-14T08:21:10;101165.09;;;13.02;43.20
57600;BME280;43426;43.594;24.334;2023-03-14T08:23:35;101160.25;;;13.52;43.97
57600;BME280;43426;43.594;24.334;2023-03-14T08:26:01;101171.19;;;14.05;41.26
57600;BME280;43426;43.594;24.334;2023-03-14T08:28:26;101185.38;;;14.30;39.65
57600;BME280;43426;43.594;24.334;2023-03-14T08:30:57;101167.25;;;14.45;38.84
57600;BME280;43426;43.594;24.334;2023-03-14T08:33:24;101170.81;;;14.61;39.01
57600;BME280;43426;43.594;24.334;2023-03-14T08:35:54;101170.47;;;14.79;37.89
57600;BME280;43426;43.594;24.334;2023-03-14T08:38:19;101131.75;;;14.92;36.42
57600;BME280;43426;43.594;24.334;2023-03-14T08:40:45;101158.88;;;15.22;36.29
57600;BME280;43426;43.594;24.334;2023-03-14T08:43:10;101169.25;;;15.55;37.16
57600;BME280;43426;43.594;24.334;2023-03-14T08:45:35;101157.47;;;15.69;37.15
57600;BME280;43426;43.594;24.334;2023-03-14T08:48:01;101151.88;;;15.56;36.92
57600;BME280;43426;43.594;24.334;2023-03-14T08:50:26;101149.38;;;15.97;37.31
57600;BME280;43426;43.594;24.334;2023-03-14T08:52:51;101152.59;;;16.36;36.23
57600;BME280;43426;43.594;24.334;2023-03-14T08:55:17;101135.72;;;16.54;35.57
57600;BME280;43426;43.594;24.334;2023-03-14T08:57:42;101149.47;;;16.74;35.40
57600;BME280;43426;43.594;24.334;2023-03-14T09:00:08;101146.88;;;16.24;35.36
57600;BME280;43426;43.594;24.334;2023-03-14T09:02:40;101127.41;;;16.69;35.34
57600;BME280;43426;43.594;24.334;2023-03-14T09:05:06;101129.56;;;16.80;35.98
57600;BME280;43426;43.594;24.334;2023-03-14T09:07:32;101112.91;;;16.27;35.62
57600;BME280;43426;43.594;24.334;2023-03-14T09:09:57;101121.84;;;16.84;36.62
57600;BME280;43426;43.594;24.334;2023-03-14T09:12:22;101106.09;;;16.86;35.38
57600;BME280;43426;43.594;24.334;2023-03-14T09:14:47;101113.72;;;16.91;35.19
57600;BME280;43426;43.594;24.334;2023-03-14T09:17:13;101095.31;;;17.19;35.41
57600;BME280;43426;43.594;24.334;2023-03-14T09:19:38;101111.13;;;16.82;35.79
57600;BME280;43426;43.594;24.334;2023-03-14T09:22:03;101088.00;;;17.20;37.00
57600;BME280;43426;43.594;24.334;2023-03-14T09:24:29;101095.19;;;17.81;35.54
57600;BME280;43426;43.594;24.334;2023-03-14T09:26:55;101084.91;;;18.10;34.73
57600;BME280;43426;43.594;24.334;2023-03-14T09:29:22;101083.66;;;17.66;33.99
57600;BME280;43426;43.594;24.334;2023-03-14T09:31:47;101066.88;;;17.96;33.84
57600;BME280;43426;43.594;24.334;2023-03-14T09:34:13;101034.94;;;18.03;34.42
57600;BME280;43426;43.594;24.334;2023-03-14T09:36:38;101038.69;;;18.15;34.58
57600;BME280;43426;43.594;24.334;2023-03-14T09:39:05;101030.66;;;18.27;34.66
57600;BME280;43426;43.594;24.334;2023-03-14T09:41:37;101022.75;;;18.58;33.63
57600;BME280;43426;43.594;24.334;2023-03-14T09:44:30;101033.44;;;18.14;33.33
57600;BME280;43426;43.594;24.334;2023-03-14T09:47:00;101031.84;;;18.45;34.95
57600;BME280;43426;43.594;24.334;2023-03-14T09:49:31;101028.91;;;18.46;32.88
57600;BME280;43426;43.594;24.334;2023-03-14T09:51:59;101013.69;;;18.64;34.65
57600;BME280;43426;43.594;24.334;2023-03-14T09:54:36;101024.78;;;19.14;32.48
57600;BME280;43426;43.594;24.334;2023-03-14T09:57:05;101001.03;;;18.76;32.25
57600;BME280;43426;43.594;24.334;2023-03-14T09:59:31;101003.06;;;18.42;31.35
57600;BME280;43426;43.594;24.334;2023-03-14T10:02:05;101006.69;;;18.36;32.99
57600;BME280;43426;43.594;24.334;2023-03-14T10:04:37;100995.69;;;18.43;33.31
57600;BME280;43426;43.594;24.334;2023-03-14T10:07:09;100997.34;;;18.50;33.58
57600;BME280;43426;43.594;24.334;2023-03-14T10:09:38;100994.41;;;18.52;32.13
57600;BME280;43426;43.594;24.334;2023-03-14T10:12:03;100983.78;;;18.69;34.72
57600;BME280;43426;43.594;24.334;2023-03-14T10:14:32;100980.69;;;18.65;33.22
57600;BME280;43426;43.594;24.334;2023-03-14T10:17:05;100960.72;;;18.97;32.24
57600;BME280;43426;43.594;24.334;2023-03-14T10:19:31;100954.31;;;18.46;32.38
57600;BME280;43426;43.594;24.334;2023-03-14T10:21:57;100964.50;;;18.64;32.61
57600;BME280;43426;43.594;24.334;2023-03-14T10:26:54;100950.13;;;18.75;32.64
57600;BME280;43426;43.594;24.334;2023-03-14T10:29:20;100927.34;;;19.13;32.48
57600;BME280;43426;43.594;24.334;2023-03-14T10:34:17;100928.00;;;19.34;32.77
57600;BME280;43426;43.594;24.334;2023-03-14T10:36:42;100896.22;;;18.89;32.65
57600;BME280;43426;43.594;24.334;2023-03-14T10:39:30;100907.66;;;19.04;30.91
57600;BME280;43426;43.594;24.334;2023-03-14T10:42:04;100889.41;;;18.98;33.38
57600;BME280;43426;43.594;24.334;2023-03-14T10:44:30;100896.91;;;18.78;31.90
57600;BME280;43426;43.594;24.334;2023-03-14T10:47:00;100892.41;;;19.15;33.51
57600;BME280;43426;43.594;24.334;2023-03-14T10:49:34;100891.69;;;19.27;30.65
57600;BME280;43426;43.594;24.334;2023-03-14T10:52:22;100883.28;;;18.71;31.44
57600;BME280;43426;43.594;24.334;2023-03-14T10:54:59;100863.41;;;18.57;31.57
57600;BME280;43426;43.594;24.334;2023-03-14T10:57:25;100861.38;;;18.78;31.91
57600;BME280;43426;43.594;24.334;2023-03-14T10:59:51;100862.50;;;18.95;31.61
57600;BME280;43426;43.594;24.334;2023-03-14T11:02:38;100858.13;;;18.94;30.44
57600;BME280;43426;43.594;24.334;2023-03-14T11:05:44;100858.00;;;18.76;29.08
57600;BME280;43426;43.594;24.334;2023-03-14T11:08:15;100847.66;;;18.52;29.50
57600;BME280;43426;43.594;24.334;2023-03-14T11:10:45;100842.47;;;18.76;29.29
57600;BME280;43426;43.594;24.334;2023-03-14T11:13:26;100830.34;;;19.16;30.11
57600;BME280;43426;43.594;24.334;2023-03-14T11:21:08;100782.56;;;19.67;28.65
57600;BME280;43426;43.594;24.334;2023-03-14T11:24:08;100795.44;;;19.85;28.00
57600;BME280;43426;43.594;24.334;2023-03-14T11:29:28;100779.44;;;20.55;28.73
57600;BME280;43426;43.594;24.334;2023-03-14T11:31:59;100761.69;;;20.57;29.09
57600;BME280;43426;43.594;24.334;2023-03-14T11:34:40;100755.13;;;20.47;28.80
57600;BME280;43426;43.594;24.334;2023-03-14T11:37:21;100751.28;;;20.36;26.28
57600;BME280;43426;43.594;24.334;2023-03-14T11:39:57;100745.88;;;20.71;27.68
57600;BME280;43426;43.594;24.334;2023-03-14T11:42:26;100743.81;;;20.55;27.80
57600;BME280;43426;43.594;24.334;2023-03-14T11:44:54;100748.75;;;20.22;27.70
57600;BME280;43426;43.594;24.334;2023-03-14T11:47:36;100749.56;;;20.11;27.55
57600;BME280;43426;43.594;24.334;2023-03-14T11:50:12;100730.78;;;20.38;29.53
57600;BME280;43426;43.594;24.334;2023-03-14T11:52:56;100728.78;;;19.92;27.55
57600;BME280;43426;43.594;24.334;2023-03-14T11:57:51;100691.97;;;20.77;28.50
57600;BME280;43426;43.594;24.334;2023-03-14T12:00:21;100689.19;;;20.89;26.86
57600;BME280;43426;43.594;24.334;2023-03-14T12:05:39;100707.94;;;20.80;28.43
57600;BME280;43426;43.594;24.334;2023-03-14T12:10:49;100691.41;;;19.97;27.80
57600;BME280;43426;43.594;24.334;2023-03-14T12:13:17;100675.22;;;19.96;28.63
57600;BME280;43426;43.594;24.334;2023-03-14T12:19:36;100671.91;;;19.33;29.13
57600;BME280;43426;43.594;24.334;2023-03-14T12:22:13;100644.38;;;19.58;29.01
57600;BME280;43426;43.594;24.334;2023-03-14T12:24:47;100634.59;;;19.20;28.38
57600;BME280;43426;43.594;24.334;2023-03-14T12:27:43;100636.66;;;19.25;27.57
57600;BME280;43426;43.594;24.334;2023-03-14T12:30:16;100652.69;;;19.51;28.97
57600;BME280;43426;43.594;24.334;2023-03-14T12:32:42;100626.38;;;19.50;28.26
57600;BME280;43426;43.594;24.334;2023-03-14T12:40:58;100624.13;;;19.89;26.72
57600;BME280;43426;43.594;24.334;2023-03-14T12:43:30;100622.16;;;19.66;26.80
57600;BME280;43426;43.594;24.334;2023-03-14T12:51:37;100594.72;;;19.97;27.65
57600;BME280;43426;43.594;24.334;2023-03-14T12:57:45;100602.22;;;19.89;27.23
57600;BME280;43426;43.594;24.334;2023-03-14T12:59:37;100596.97;;;19.88;26.26
57600;BME280;43426;43.594;24.334;2023-03-14T13:04:42;100586.84;;;19.34;26.59
57600;BME280;43426;43.594;24.334;2023-03-14T13:09:55;100588.63;;;19.40;27.25
57600;BME280;43426;43.594;24.334;2023-03-14T13:12:28;100562.31;;;19.28;26.40
57600;BME280;43426;43.594;24.334;2023-03-14T13:14:58;100572.56;;;19.32;26.94
57600;BME280;43426;43.594;24.334;2023-03-14T13:17:29;100561.25;;;19.29;28.06
57600;BME280;43426;43.594;24.334;2023-03-14T13:19:57;100556.63;;;19.29;26.74
57600;BME280;43426;43.594;24.334;2023-03-14T13:22:28;100551.91;;;19.06;27.82
57600;BME280;43426;43.594;24.334;2023-03-14T13:25:07;100528.78;;;18.90;27.83
57600;BME280;43426;43.594;24.334;2023-03-14T13:27:35;100560.06;;;18.94;27.62
57600;BME280;43426;43.594;24.334;2023-03-14T13:30:29;100537.63;;;18.85;28.04
57600;BME280;43426;43.594;24.334;2023-03-14T13:33:03;100528.13;;;18.58;27.27
57600;BME280;43426;43.594;24.334;2023-03-14T13:35:39;100534.97;;;18.79;27.69
57600;BME280;43426;43.594;24.334;2023-03-14T13:38:04;100508.84;;;18.83;29.39
57600;BME280;43426;43.594;24.334;2023-03-14T13:40:32;100523.44;;;18.95;27.29
57600;BME280;43426;43.594;24.334;2023-03-14T13:43:26;100514.56;;;18.81;27.23
57600;BME280;43426;43.594;24.334;2023-03-14T13:46:02;100478.06;;;18.27;26.49